Informes METAR

 

LEZL - Sevilla, Spain
Distancia de la estación: ENE 8km
Actualización: 25/04/2014 09:30
Despejado
Despejado
 Viento de NO
Viento: NO 7 km/h
Temperatura: 12°C
Rocío: 8°C
Humedad: 77%
Barómetro: 1026 hPa
Resumen: Despejado
Visibilidad: mayor de 10 km
2014/04/25 07:30 LEZL 250730Z 31004KT 280V350 CAVOK 12/08 Q1026 NOSIG
LEMO - Morón, Spain
Distancia de la estación: SE 43km
Actualización: 25/04/2014 09:00
Despejado
Despejado
 Viento de variable
Viento: variable 4 km/h
Temperatura: 11°C
Rocío: 8°C
Humedad: 82%
Barómetro: 1025 hPa
Resumen: Despejado
Visibilidad: mayor de 10 km
2014/04/25 07:00 LEMO 250700Z VRB02KT CAVOK 11/08 Q1025 NOSIG
LEJR - Jeréz, Spain
Distancia de la estación: S 71km
Actualización: 25/04/2014 09:30
Despejado
Despejado
 Viento de variable
Viento: variable 4 km/h
Temperatura: 12°C
Rocío: 10°C
Humedad: 88%
Barómetro: 1026 hPa
Resumen: Despejado
Visibilidad: mayor de 10 km
2014/04/25 07:30 LEJR 250730Z VRB02KT CAVOK 12/10 Q1026
 
LERT - Rota, Spain
Distancia de la estación: SSO 89km
Actualización: 25/04/2014 09:00
Despejado
Despejado
 Viento de NNO
Viento: NNO 9 km/h
Temperatura: 12°C
Rocío: 7°C
Humedad: 72%
Barómetro: 1025 hPa
Resumen: Despejado
Visibilidad: mayor de 10 km
2014/04/25 07:00 LERT 250700Z 33005KT 290V360 CAVOK 12/07 Q1025 NOSIG
LEMG - Málaga, Spain
Distancia de la estación: ESE 157km
Actualización: 25/04/2014 09:30
Poco nuboso
Poco nuboso
 Viento de O
Viento: O 28 km/h
Temperatura: 13°C
Rocío: 6°C
Humedad: 63%
Barómetro: 1024 hPa
Nubes: Poco nuboso
Visibilidad: 10 km
Detalles de las nubes: Poco nuboso 1219 m
2014/04/25 07:30 LEMG 250730Z 28015KT 260V320 9999 FEW040 13/06 Q1024 NOSIG
LEBA - Córdoba, Spain
Distancia de la estación: ENE 115km
Actualización: 25/04/2014 09:00
Despejado
Despejado
 Viento de variable
Viento: variable 2 km/h
Temperatura: 9°C
Rocío: 7°C
Humedad: 87%
Barómetro: 1025 hPa
Resumen: Despejado
Visibilidad: mayor de 10 km
2014/04/25 07:00 LEBA 250700Z VRB01KT CAVOK 09/07 Q1025
 
LEGR - Granada, Spain
Distancia de la estación: E 198km
Actualización: 25/04/2014 09:30
Poco nuboso
Poco nuboso
 Viento de N
Viento: N 7 km/h
Temperatura: 10°C
Sensación térmica: 9°C
Rocío: 5°C
Humedad: 71%
Barómetro: 1024 hPa
Nubes: Poco nuboso
Visibilidad: 10 km
Detalles de las nubes: Poco nuboso 914 m
2014/04/25 07:30 LEGR 250730Z 35004KT 320V040 9999 FEW030 10/05 Q1024
LEAM - Almería, Spain
Distancia de la estación: E 326km
Actualización: 25/04/2014 09:30
Despejado
Despejado
 Viento de calm
Viento: Calma
Temperatura: 18°C
Rocío: 8°C
Humedad: 52%
Barómetro: 1020 hPa
Resumen: Despejado
Visibilidad: mayor de 10 km
2014/04/25 07:30 LEAM 250730Z 00000KT CAVOK 18/08 Q1020
LEMD - Madrid/Barajas, Spain
Distancia de la estación: NNE 402km
Actualización: 25/04/2014 09:30
Poco nuboso
Poco nuboso
 Viento de ONO
Viento: ONO 17 km/h
Temperatura: 9°C
Sensación térmica: 7°C
Rocío: 1°C
Humedad: 58%
Barómetro: 1022 hPa
Nubes: Poco nuboso
Visibilidad: 10 km
Detalles de las nubes: Poco nuboso 1981 m
2014/04/25 07:30 LEMD 250730Z 29009KT 250V310 9999 FEW065 09/01 Q1022 NOSIG
 
LEVD - Valladolid, Spain
Distancia de la estación: N 492km
Actualización: 25/04/2014 09:30
Poco nuboso
Poco nuboso
 Viento de O
Viento: O 19 km/h
Temperatura: 4°C
Sensación térmica: 0°C
Rocío: 2°C
Humedad: 87%
Barómetro: 1022 hPa
Nubes: Poco nuboso
Visibilidad: 10 km
Detalles de las nubes: Poco nuboso 305 m
2014/04/25 07:30 LEVD 250730Z 26010KT 9999 FEW010 04/02 Q1022
LEBL - Barcelona, Spain
Distancia de la estación: NE 816km
Actualización: 25/04/2014 09:30
Parcialmente nuboso
Parcialmente nuboso
 Viento de NO
Viento: NO 20 km/h, Racha: 41 km/h
Temperatura: 15°C
Rocío: 7°C
Humedad: 59%
Barómetro: 1012 hPa
Nubes: Parcialmente nuboso
Visibilidad: 10 km
Detalles de las nubes: Poco nuboso 366 m
Parcialmente nuboso 914 m
2014/04/25 07:30 LEBL 250730Z 31011G22KT 260V340 9999 FEW012 SCT030 15/07 Q1012 NOSIG
LEVC - Valencia, Spain
Distancia de la estación: ENE 535km
Actualización: 25/04/2014 09:30
Poco nuboso
Poco nuboso
 Viento de ONO
Viento: ONO 35 km/h
Temperatura: 17°C
Rocío: 2°C
Humedad: 37%
Barómetro: 1017 hPa
Nubes: Poco nuboso
Visibilidad: 10 km
Detalles de las nubes: Poco nuboso 762 m
2014/04/25 07:30 LEVC 250730Z 29019KT 260V320 9999 FEW025 17/02 Q1017 NOSIG